Track Степанов Александр

Time Latitude Longitude Accuracy (66% radius in meters) Altitude (meters) Speed (km/hour) Bearing (degrees) Battery (%) GPS flag
06:05:36 57.202227 60.118900 0 0 0 0 1 delete
06:05:34 57.202272 60.118981 0 0 0 0 1 delete
06:05:33 57.202305 60.118997 0 0 0 0 1 delete
06:05:32 57.202348 60.119049 0 0 0 0 1 delete
06:05:31 57.202380 60.119066 0 0 0 0 1 delete
06:05:30 57.202411 60.119112 0 0 0 0 1 delete
06:05:29 57.202427 60.119158 0 0 0 0 1 delete
06:05:28 57.202449 60.119200 0 0 0 0 1 delete
06:05:27 57.202476 60.119231 0 0 0 0 1 delete
06:05:26 57.202490 60.119274 0 0 0 0 1 delete
06:05:25 57.202495 60.119326 0 0 0 0 1 delete
06:05:24 57.202509 60.119387 0 0 0 0 1 delete
06:05:23 57.202514 60.119447 0 0 0 0 1 delete
06:05:22 57.202516 60.119513 0 0 0 0 1 delete
06:05:20 57.202530 60.119618 0 0 0 0 1 delete
06:05:18 57.202554 60.119714 0 0 0 0 1 delete
06:05:17 57.202562 60.119764 0 0 0 0 1 delete
06:05:16 57.202584 60.119825 0 0 0 0 1 delete
06:05:15 57.202597 60.119891 0 0 0 0 1 delete
06:05:14 57.202621 60.119990 0 0 0 0 1 delete
06:05:13 57.202660 60.119956 0 0 0 0 1 delete
06:05:12 57.202696 60.119916 0 0 0 0 1 delete
06:05:11 57.202741 60.119865 0 0 0 0 1 delete
06:05:10 57.202795 60.119817 0 0 0 0 1 delete
06:05:09 57.202853 60.119759 0 0 0 0 1 delete
06:05:08 57.202903 60.119717 0 0 0 0 1 delete
06:05:07 57.202956 60.119654 0 0 0 0 1 delete
06:05:06 57.203014 60.119628 0 0 0 0 1 delete
06:05:05 57.203060 60.119568 0 0 0 0 1 delete
06:05:04 57.203111 60.119532 0 0 0 0 1 delete
06:05:03 57.203156 60.119481 0 0 0 0 1 delete
06:05:02 57.203198 60.119451 0 0 0 0 1 delete
06:05:01 57.203252 60.119423 0 0 0 0 1 delete
06:05:00 57.203281 60.119384 0 0 0 0 1 delete
06:04:32 57.203308 60.119360 0 0 0 0 1 delete
06:04:01 57.203335 60.119370 0 0 0 0 1 delete
06:03:30 57.203355 60.119319 0 0 0 0 1 delete
06:03:25 57.203331 60.119291 0 0 0 0 1 delete
06:03:22 57.203361 60.119293 0 0 0 0 1 delete
06:03:15 57.203378 60.119343 0 0 0 0 1 delete